Terminal Aerodrome Forecast
Issued by NWS

Home | Current Version | Previous Version | Graphics & Text | Print | Product List | Glossary On
Versions: 1 2 3 4 5 6 7 8 9 10 11 12 13 14
000
FTUS43 KTOP 241120
TAFMHK
TAF
KMHK 241120Z 2412/2512 17008KT P6SM SCT250
     FM241700 17012G20KT P6SM VCTS SCT050 SCT100CB
     FM250200 19009KT P6SM BKN150
     FM250600 20006KT P6SM VCTS BKN060CB=

USA.gov is the U.S. government's official web portal to all federal, state and local government web resources and services.